KAFW/AFW METAR and TAF weather

Enter ICAO airport designator
Station Type Date Time Source
KAFW METAR 2019/04/22 19:53 UTC NOAA

KAFW 221953Z 15014KT 10SM FEW035 SCT240 OVC280 25/16 A3001 RMK AO2 SLP153 T02500161


Station Type Date Time Source
KAFW Decoded METAR 2019/04/22 19:53 UTC NOAA

FORT WORTH ALLIANCE AIRPORT, TX, United States (KAFW) 32-59N 097-19W 233M
Apr 22, 2019 - 03:53 PM EDT / 2019.04.22 1953 UTC
Wind: from the SSE (150 degrees) at 16 MPH (14 KT):0
Visibility: 10 mile(s):0
Sky conditions: overcast
Temperature: 77.0 F (25.0 C)
Dew Point: 61.0 F (16.1 C)
Relative Humidity: 57%
Pressure (altimeter): 30.01 in. Hg (1016 hPa)
ob: KAFW 221953Z 15014KT 10SM FEW035 SCT240 OVC280 25/16 A3001 RMK AO2 SLP153 T02500161
cycle: 20

Station Type Date Time Source
KAFW TAF 2019/04/22 18:39 UTC NOAA

TAF KAFW 221736Z 2218/2318 17015G20KT P6SM SCT040 BKN200
FM230000 15011KT P6SM SCT060 OVC170
FM230800 16010KT P6SM BKN025
FM231000 17009KT P6SM OVC013

Example: see airport list